sensor_id;sensor_type;location;lat;lon;timestamp;pressure;altitude;pressure_sealevel;temperature;humidity
19761;BME280;10039;42.632;23.408;2022-12-15T00:00:10;94093.09;;;3.66;80.51
19761;BME280;10039;42.632;23.408;2022-12-15T00:02:54;94124.28;;;3.78;80.73
19761;BME280;10039;42.632;23.408;2022-12-15T00:05:38;94081.53;;;3.49;81.43
19761;BME280;10039;42.632;23.408;2022-12-15T00:08:22;94066.50;;;3.43;81.83
19761;BME280;10039;42.632;23.408;2022-12-15T00:11:06;94116.34;;;3.78;81.63
19761;BME280;10039;42.632;23.408;2022-12-15T00:13:50;94113.00;;;3.74;81.81
19761;BME280;10039;42.632;23.408;2022-12-15T00:16:34;94135.88;;;3.91;81.47
19761;BME280;10039;42.632;23.408;2022-12-15T00:19:18;94124.63;;;3.80;81.08
19761;BME280;10039;42.632;23.408;2022-12-15T00:22:04;94097.19;;;3.67;81.43
19761;BME280;10039;42.632;23.408;2022-12-15T00:24:48;94160.31;;;3.98;81.57
19761;BME280;10039;42.632;23.408;2022-12-15T00:27:32;94183.78;;;3.86;82.26
19761;BME280;10039;42.632;23.408;2022-12-15T00:30:16;94179.41;;;3.62;82.06
19761;BME280;10039;42.632;23.408;2022-12-15T00:33:09;94200.50;;;3.62;82.69
19761;BME280;10039;42.632;23.408;2022-12-15T00:35:54;94187.38;;;3.48;82.55
19761;BME280;10039;42.632;23.408;2022-12-15T00:38:39;94242.63;;;3.79;82.66
19761;BME280;10039;42.632;23.408;2022-12-15T00:41:09;94191.47;;;3.63;82.52
19761;BME280;10039;42.632;23.408;2022-12-15T00:43:38;94207.91;;;3.81;82.24
19761;BME280;10039;42.632;23.408;2022-12-15T00:46:04;94192.09;;;3.81;81.85
19761;BME280;10039;42.632;23.408;2022-12-15T00:48:48;94220.59;;;4.03;81.51
19761;BME280;10039;42.632;23.408;2022-12-15T00:51:15;94185.66;;;3.85;81.46
19761;BME280;10039;42.632;23.408;2022-12-15T00:53:41;94171.69;;;3.88;81.28
19761;BME280;10039;42.632;23.408;2022-12-15T00:56:25;94173.53;;;3.95;80.96
19761;BME280;10039;42.632;23.408;2022-12-15T00:59:11;94165.63;;;3.95;81.10
19761;BME280;10039;42.632;23.408;2022-12-15T01:01:55;94193.03;;;4.08;80.81
19761;BME280;10039;42.632;23.408;2022-12-15T01:04:39;94191.91;;;4.09;81.14
19761;BME280;10039;42.632;23.408;2022-12-15T01:07:24;94182.97;;;3.92;81.52
19761;BME280;10039;42.632;23.408;2022-12-15T01:10:08;94197.09;;;3.65;82.25
19761;BME280;10039;42.632;23.408;2022-12-15T01:12:52;94156.13;;;3.43;83.71
19761;BME280;10039;42.632;23.408;2022-12-15T01:15:36;94147.69;;;3.69;83.34
19761;BME280;10039;42.632;23.408;2022-12-15T01:18:22;94164.13;;;3.90;83.08
19761;BME280;10039;42.632;23.408;2022-12-15T01:21:07;94147.63;;;3.79;82.95
19761;BME280;10039;42.632;23.408;2022-12-15T01:23:34;94131.03;;;3.79;82.97
19761;BME280;10039;42.632;23.408;2022-12-15T01:26:01;94095.78;;;3.55;83.28
19761;BME280;10039;42.632;23.408;2022-12-15T01:28:27;94115.34;;;3.61;83.57
19761;BME280;10039;42.632;23.408;2022-12-15T01:30:54;94126.63;;;3.65;83.45
19761;BME280;10039;42.632;23.408;2022-12-15T01:33:20;94100.31;;;3.55;83.59
19761;BME280;10039;42.632;23.408;2022-12-15T01:36:00;94120.91;;;3.74;83.80
19761;BME280;10039;42.632;23.408;2022-12-15T01:38:27;94160.00;;;3.89;83.68
19761;BME280;10039;42.632;23.408;2022-12-15T01:41:06;94147.69;;;3.69;83.37
19761;BME280;10039;42.632;23.408;2022-12-15T01:43:34;94175.81;;;3.89;84.00
19761;BME280;10039;42.632;23.408;2022-12-15T01:46:10;94124.78;;;3.59;84.08
19761;BME280;10039;42.632;23.408;2022-12-15T01:48:43;94131.97;;;3.55;84.67
19761;BME280;10039;42.632;23.408;2022-12-15T01:51:27;94143.63;;;3.61;85.74
19761;BME280;10039;42.632;23.408;2022-12-15T01:54:07;94114.97;;;3.59;85.23
19761;BME280;10039;42.632;23.408;2022-12-15T01:56:41;94113.03;;;3.70;84.69
19761;BME280;10039;42.632;23.408;2022-12-15T01:59:11;94087.41;;;3.67;83.96
19761;BME280;10039;42.632;23.408;2022-12-15T02:01:39;94077.50;;;3.31;84.68
19761;BME280;10039;42.632;23.408;2022-12-15T02:04:06;94110.06;;;3.65;85.23
19761;BME280;10039;42.632;23.408;2022-12-15T02:06:32;94064.91;;;3.56;85.31
19761;BME280;10039;42.632;23.408;2022-12-15T02:08:59;94115.97;;;3.79;84.91
19761;BME280;10039;42.632;23.408;2022-12-15T02:11:39;94043.84;;;3.49;84.55
19761;BME280;10039;42.632;23.408;2022-12-15T02:14:09;94056.84;;;3.73;84.45
19761;BME280;10039;42.632;23.408;2022-12-15T02:17:09;94106.44;;;3.38;85.89
19761;BME280;10039;42.632;23.408;2022-12-15T02:19:55;94056.66;;;3.50;86.39
19761;BME280;10039;42.632;23.408;2022-12-15T02:28:47;94048.41;;;3.45;87.15
19761;BME280;10039;42.632;23.408;2022-12-15T02:31:21;93999.47;;;3.40;86.84
19761;BME280;10039;42.632;23.408;2022-12-15T02:34:19;94013.00;;;2.88;88.07
19761;BME280;10039;42.632;23.408;2022-12-15T02:36:50;93980.22;;;2.93;88.75
19761;BME280;10039;42.632;23.408;2022-12-15T02:39:19;94015.44;;;3.23;88.81
19761;BME280;10039;42.632;23.408;2022-12-15T02:41:46;93955.66;;;3.10;88.62
19761;BME280;10039;42.632;23.408;2022-12-15T02:44:26;94029.75;;;3.22;89.31
19761;BME280;10039;42.632;23.408;2022-12-15T03:00:10;94097.16;;;3.16;90.46
19761;BME280;10039;42.632;23.408;2022-12-15T03:02:40;94082.38;;;3.32;90.36
19761;BME280;10039;42.632;23.408;2022-12-15T03:05:07;94080.47;;;3.36;89.56
19761;BME280;10039;42.632;23.408;2022-12-15T03:07:33;94065.97;;;3.08;89.40
19761;BME280;10039;42.632;23.408;2022-12-15T03:10:00;94037.25;;;3.27;89.11
19761;BME280;10039;42.632;23.408;2022-12-15T03:12:27;94077.03;;;3.43;89.12
19761;BME280;10039;42.632;23.408;2022-12-15T03:14:52;94095.84;;;3.45;88.81
19761;BME280;10039;42.632;23.408;2022-12-15T03:17:18;94043.25;;;3.28;88.15
19761;BME280;10039;42.632;23.408;2022-12-15T03:19:43;94049.00;;;3.16;89.17
19761;BME280;10039;42.632;23.408;2022-12-15T03:22:09;94063.06;;;3.49;88.82
19761;BME280;10039;42.632;23.408;2022-12-15T03:24:34;94053.06;;;3.27;88.46
19761;BME280;10039;42.632;23.408;2022-12-15T03:27:00;94055.94;;;3.43;88.40
19761;BME280;10039;42.632;23.408;2022-12-15T03:29:26;94076.88;;;3.67;88.02
19761;BME280;10039;42.632;23.408;2022-12-15T03:31:51;94037.06;;;3.48;87.05
19761;BME280;10039;42.632;23.408;2022-12-15T03:34:17;94070.88;;;3.63;86.78
19761;BME280;10039;42.632;23.408;2022-12-15T03:36:42;94047.91;;;3.64;86.50
19761;BME280;10039;42.632;23.408;2022-12-15T03:39:08;94060.28;;;3.67;86.04
19761;BME280;10039;42.632;23.408;2022-12-15T03:41:33;94043.81;;;3.56;86.17
19761;BME280;10039;42.632;23.408;2022-12-15T03:43:59;94047.81;;;3.71;85.63
19761;BME280;10039;42.632;23.408;2022-12-15T03:46:24;94055.31;;;3.76;85.32
19761;BME280;10039;42.632;23.408;2022-12-15T03:48:51;94089.47;;;3.97;85.07
19761;BME280;10039;42.632;23.408;2022-12-15T03:51:16;94106.38;;;3.99;84.81
19761;BME280;10039;42.632;23.408;2022-12-15T03:53:41;94095.06;;;3.99;84.50
19761;BME280;10039;42.632;23.408;2022-12-15T03:56:07;94121.81;;;4.04;84.17
19761;BME280;10039;42.632;23.408;2022-12-15T03:58:33;94105.03;;;3.81;84.05
19761;BME280;10039;42.632;23.408;2022-12-15T04:00:58;94071.91;;;3.73;84.25
19761;BME280;10039;42.632;23.408;2022-12-15T04:03:33;94118.03;;;4.02;84.31
19761;BME280;10039;42.632;23.408;2022-12-15T04:05:58;94099.38;;;3.79;83.94
19761;BME280;10039;42.632;23.408;2022-12-15T04:08:23;94142.59;;;3.95;83.85
19761;BME280;10039;42.632;23.408;2022-12-15T04:10:50;94111.47;;;3.76;84.01
19761;BME280;10039;42.632;23.408;2022-12-15T04:13:16;94123.50;;;3.81;83.76
19761;BME280;10039;42.632;23.408;2022-12-15T04:15:41;94133.72;;;3.72;84.25
19761;BME280;10039;42.632;23.408;2022-12-15T04:18:09;94148.78;;;3.78;84.21
19761;BME280;10039;42.632;23.408;2022-12-15T04:20:35;94150.97;;;3.87;84.16
19761;BME280;10039;42.632;23.408;2022-12-15T04:23:00;94143.88;;;3.80;84.37
19761;BME280;10039;42.632;23.408;2022-12-15T04:25:26;94165.63;;;3.91;84.26
19761;BME280;10039;42.632;23.408;2022-12-15T04:28:11;94125.69;;;3.89;84.13
19761;BME280;10039;42.632;23.408;2022-12-15T04:31:01;94157.28;;;4.00;84.64
19761;BME280;10039;42.632;23.408;2022-12-15T04:33:50;94141.59;;;3.79;84.70
19761;BME280;10039;42.632;23.408;2022-12-15T04:36:37;94135.31;;;3.62;85.60
19761;BME280;10039;42.632;23.408;2022-12-15T04:39:23;94135.72;;;3.57;85.79
19761;BME280;10039;42.632;23.408;2022-12-15T04:42:07;94152.91;;;3.79;86.41
19761;BME280;10039;42.632;23.408;2022-12-15T04:44:53;94116.88;;;3.59;86.35
19761;BME280;10039;42.632;23.408;2022-12-15T04:47:40;94112.41;;;3.49;86.32
19761;BME280;10039;42.632;23.408;2022-12-15T04:50:24;94122.19;;;3.52;86.07
19761;BME280;10039;42.632;23.408;2022-12-15T04:53:10;94084.88;;;3.53;86.71
19761;BME280;10039;42.632;23.408;2022-12-15T04:55:54;94144.38;;;3.58;87.26
19761;BME280;10039;42.632;23.408;2022-12-15T04:58:38;94158.38;;;3.48;87.78
19761;BME280;10039;42.632;23.408;2022-12-15T05:01:22;94064.38;;;3.24;88.65
19761;BME280;10039;42.632;23.408;2022-12-15T05:04:06;94123.00;;;3.42;88.60
19761;BME280;10039;42.632;23.408;2022-12-15T05:06:50;94124.13;;;3.41;89.24
19761;BME280;10039;42.632;23.408;2022-12-15T05:09:34;94120.31;;;3.49;89.09
19761;BME280;10039;42.632;23.408;2022-12-15T05:12:18;94151.78;;;3.77;88.41
19761;BME280;10039;42.632;23.408;2022-12-15T05:15:02;94167.25;;;3.78;87.51
19761;BME280;10039;42.632;23.408;2022-12-15T05:17:46;94157.53;;;3.65;87.26
19761;BME280;10039;42.632;23.408;2022-12-15T05:20:30;94183.06;;;3.75;87.08
19761;BME280;10039;42.632;23.408;2022-12-15T05:23:14;94220.59;;;4.00;86.72
19761;BME280;10039;42.632;23.408;2022-12-15T05:25:58;94234.13;;;4.09;86.51
19761;BME280;10039;42.632;23.408;2022-12-15T05:28:43;94238.56;;;4.26;86.13
19761;BME280;10039;42.632;23.408;2022-12-15T05:31:27;94261.19;;;4.27;85.57
19761;BME280;10039;42.632;23.408;2022-12-15T05:34:11;94243.13;;;4.18;84.89
19761;BME280;10039;42.632;23.408;2022-12-15T05:36:38;94256.53;;;4.41;84.44
19761;BME280;10039;42.632;23.408;2022-12-15T05:39:04;94267.84;;;4.45;84.42
19761;BME280;10039;42.632;23.408;2022-12-15T05:41:29;94241.59;;;4.21;84.23
19761;BME280;10039;42.632;23.408;2022-12-15T05:43:55;94258.53;;;4.27;83.81
19761;BME280;10039;42.632;23.408;2022-12-15T05:46:20;94302.88;;;4.52;83.42
19761;BME280;10039;42.632;23.408;2022-12-15T05:48:46;94269.03;;;4.34;83.69
19761;BME280;10039;42.632;23.408;2022-12-15T05:51:12;94305.91;;;4.47;83.33
19761;BME280;10039;42.632;23.408;2022-12-15T05:53:38;94305.56;;;4.45;83.47
19761;BME280;10039;42.632;23.408;2022-12-15T05:56:07;94323.22;;;4.52;83.04
19761;BME280;10039;42.632;23.408;2022-12-15T05:58:33;94303.72;;;4.36;82.88
19761;BME280;10039;42.632;23.408;2022-12-15T06:01:13;94310.91;;;4.32;83.48
19761;BME280;10039;42.632;23.408;2022-12-15T06:03:40;94321.94;;;4.20;83.20
19761;BME280;10039;42.632;23.408;2022-12-15T06:06:06;94329.88;;;4.20;83.78
19761;BME280;10039;42.632;23.408;2022-12-15T06:08:34;94361.44;;;4.34;83.51
19761;BME280;10039;42.632;23.408;2022-12-15T06:11:00;94360.31;;;4.35;83.39
19761;BME280;10039;42.632;23.408;2022-12-15T06:13:27;94336.28;;;4.15;83.46
19761;BME280;10039;42.632;23.408;2022-12-15T06:15:58;94323.88;;;4.12;83.41
19761;BME280;10039;42.632;23.408;2022-12-15T06:18:27;94342.75;;;4.07;84.04
19761;BME280;10039;42.632;23.408;2022-12-15T06:20:59;94356.91;;;4.38;84.39
19761;BME280;10039;42.632;23.408;2022-12-15T06:23:27;94352.91;;;4.12;84.04
19761;BME280;10039;42.632;23.408;2022-12-15T06:25:54;94375.03;;;4.39;84.16
19761;BME280;10039;42.632;23.408;2022-12-15T06:28:20;94387.84;;;4.44;84.12
19761;BME280;10039;42.632;23.408;2022-12-15T06:30:52;94361.13;;;4.28;84.12
19761;BME280;10039;42.632;23.408;2022-12-15T06:33:19;94341.16;;;4.20;83.84
19761;BME280;10039;42.632;23.408;2022-12-15T06:35:45;94393.88;;;4.38;83.75
19761;BME280;10039;42.632;23.408;2022-12-15T06:38:10;94389.38;;;4.35;84.14
19761;BME280;10039;42.632;23.408;2022-12-15T06:40:37;94346.50;;;4.13;83.86
19761;BME280;10039;42.632;23.408;2022-12-15T06:43:02;94374.63;;;4.40;83.86
19761;BME280;10039;42.632;23.408;2022-12-15T06:45:27;94380.03;;;4.20;84.34
19761;BME280;10039;42.632;23.408;2022-12-15T06:47:53;94407.22;;;4.06;84.93
19761;BME280;10039;42.632;23.408;2022-12-15T06:50:18;94381.56;;;4.07;85.44
19761;BME280;10039;42.632;23.408;2022-12-15T06:52:44;94385.72;;;4.11;84.73
19761;BME280;10039;42.632;23.408;2022-12-15T06:55:09;94402.63;;;4.28;85.16
19761;BME280;10039;42.632;23.408;2022-12-15T06:57:34;94398.41;;;4.34;85.04
19761;BME280;10039;42.632;23.408;2022-12-15T07:00:01;94386.09;;;4.10;85.37
19761;BME280;10039;42.632;23.408;2022-12-15T07:02:27;94383.44;;;4.13;85.24
19761;BME280;10039;42.632;23.408;2022-12-15T07:04:54;94404.13;;;4.25;85.39
19761;BME280;10039;42.632;23.408;2022-12-15T07:07:19;94411.31;;;4.21;85.32
19761;BME280;10039;42.632;23.408;2022-12-15T07:09:45;94417.34;;;4.22;85.60
19761;BME280;10039;42.632;23.408;2022-12-15T07:12:11;94429.28;;;4.47;85.23
19761;BME280;10039;42.632;23.408;2022-12-15T07:14:36;94400.69;;;4.35;85.14
19761;BME280;10039;42.632;23.408;2022-12-15T07:17:02;94407.41;;;4.53;84.24
19761;BME280;10039;42.632;23.408;2022-12-15T07:19:27;94442.38;;;4.75;84.03
19761;BME280;10039;42.632;23.408;2022-12-15T07:21:54;94419.38;;;4.68;82.95
19761;BME280;10039;42.632;23.408;2022-12-15T07:24:22;94433.28;;;4.79;83.04
19761;BME280;10039;42.632;23.408;2022-12-15T07:26:48;94429.84;;;4.86;82.53
19761;BME280;10039;42.632;23.408;2022-12-15T07:29:13;94456.56;;;5.02;82.70
19761;BME280;10039;42.632;23.408;2022-12-15T07:31:39;94450.47;;;5.08;81.98
19761;BME280;10039;42.632;23.408;2022-12-15T07:34:04;94441.47;;;4.99;81.89
19761;BME280;10039;42.632;23.408;2022-12-15T07:36:30;94453.53;;;5.03;81.88
19761;BME280;10039;42.632;23.408;2022-12-15T07:38:59;94447.78;;;5.15;81.90
19761;BME280;10039;42.632;23.408;2022-12-15T07:41:26;94448.53;;;5.16;81.88
19761;BME280;10039;42.632;23.408;2022-12-15T07:43:52;94482.41;;;5.31;82.15
19761;BME280;10039;42.632;23.408;2022-12-15T07:46:17;94447.00;;;5.18;81.71
19761;BME280;10039;42.632;23.408;2022-12-15T07:48:43;94460.19;;;5.25;81.79
19761;BME280;10039;42.632;23.408;2022-12-15T07:51:09;94466.91;;;5.37;81.29
19761;BME280;10039;42.632;23.408;2022-12-15T07:53:35;94487.91;;;5.57;80.90
19761;BME280;10039;42.632;23.408;2022-12-15T07:56:03;94451.34;;;5.42;80.71
19761;BME280;10039;42.632;23.408;2022-12-15T07:58:29;94464.53;;;5.49;80.68
19761;BME280;10039;42.632;23.408;2022-12-15T08:01:00;94468.72;;;5.43;80.73
19761;BME280;10039;42.632;23.408;2022-12-15T08:03:27;94487.97;;;5.47;81.62
19761;BME280;10039;42.632;23.408;2022-12-15T08:05:53;94491.75;;;5.46;81.86
19761;BME280;10039;42.632;23.408;2022-12-15T08:08:19;94500.38;;;5.57;81.76
19761;BME280;10039;42.632;23.408;2022-12-15T08:10:45;94506.31;;;5.71;81.30
19761;BME280;10039;42.632;23.408;2022-12-15T08:13:12;94517.59;;;5.75;81.06
19761;BME280;10039;42.632;23.408;2022-12-15T08:15:37;94515.34;;;5.74;80.83
19761;BME280;10039;42.632;23.408;2022-12-15T08:18:04;94512.28;;;5.86;80.69
19761;BME280;10039;42.632;23.408;2022-12-15T08:20:31;94482.94;;;5.63;80.73
19761;BME280;10039;42.632;23.408;2022-12-15T08:22:57;94497.28;;;5.65;81.20
19761;BME280;10039;42.632;23.408;2022-12-15T08:25:24;94515.34;;;5.81;80.87
19761;BME280;10039;42.632;23.408;2022-12-15T08:27:52;94498.84;;;5.59;80.96
19761;BME280;10039;42.632;23.408;2022-12-15T08:30:18;94518.34;;;5.83;80.62
19761;BME280;10039;42.632;23.408;2022-12-15T08:32:44;94527.44;;;5.75;80.75
19761;BME280;10039;42.632;23.408;2022-12-15T08:35:10;94528.84;;;5.93;80.15
19761;BME280;10039;42.632;23.408;2022-12-15T08:37:36;94511.13;;;5.87;80.04
19761;BME280;10039;42.632;23.408;2022-12-15T08:40:02;94535.91;;;6.07;79.75
19761;BME280;10039;42.632;23.408;2022-12-15T08:42:32;94512.19;;;5.93;79.34
19761;BME280;10039;42.632;23.408;2022-12-15T08:44:58;94543.81;;;6.14;79.59
19761;BME280;10039;42.632;23.408;2022-12-15T08:47:23;94524.22;;;6.04;79.12
19761;BME280;10039;42.632;23.408;2022-12-15T08:49:49;94536.22;;;6.16;78.94
19761;BME280;10039;42.632;23.408;2022-12-15T08:52:14;94529.44;;;6.11;79.33
19761;BME280;10039;42.632;23.408;2022-12-15T08:54:40;94517.00;;;6.05;79.38
19761;BME280;10039;42.632;23.408;2022-12-15T08:57:05;94532.34;;;6.24;78.96
19761;BME280;10039;42.632;23.408;2022-12-15T08:59:30;94534.66;;;6.18;78.57
19761;BME280;10039;42.632;23.408;2022-12-15T09:01:56;94518.78;;;6.18;79.24
19761;BME280;10039;42.632;23.408;2022-12-15T09:04:22;94491.59;;;6.11;79.34
19761;BME280;10039;42.632;23.408;2022-12-15T09:06:48;94497.31;;;6.06;80.36
19761;BME280;10039;42.632;23.408;2022-12-15T09:09:13;94498.53;;;6.01;80.99
19761;BME280;10039;42.632;23.408;2022-12-15T09:11:39;94544.38;;;6.32;81.33
19761;BME280;10039;42.632;23.408;2022-12-15T09:14:05;94523.28;;;6.21;80.36
19761;BME280;10039;42.632;23.408;2022-12-15T09:16:30;94530.75;;;6.33;79.73
19761;BME280;10039;42.632;23.408;2022-12-15T09:18:58;94522.69;;;6.40;80.09
19761;BME280;10039;42.632;23.408;2022-12-15T09:21:26;94523.59;;;6.30;80.32
19761;BME280;10039;42.632;23.408;2022-12-15T09:23:53;94526.94;;;6.34;80.57
19761;BME280;10039;42.632;23.408;2022-12-15T09:26:21;94517.25;;;6.17;80.99
19761;BME280;10039;42.632;23.408;2022-12-15T09:28:47;94518.41;;;6.20;80.82
19761;BME280;10039;42.632;23.408;2022-12-15T09:31:16;94535.63;;;6.35;80.46
19761;BME280;10039;42.632;23.408;2022-12-15T09:33:43;94541.16;;;6.51;80.58
19761;BME280;10039;42.632;23.408;2022-12-15T09:36:12;94515.03;;;6.12;81.00
19761;BME280;10039;42.632;23.408;2022-12-15T09:38:40;94533.16;;;6.21;81.54
19761;BME280;10039;42.632;23.408;2022-12-15T09:44:04;94561.00;;;6.36;82.31
19761;BME280;10039;42.632;23.408;2022-12-15T09:46:52;94553.03;;;6.36;82.46
19761;BME280;10039;42.632;23.408;2022-12-15T09:52:15;94537.97;;;6.29;83.36
19761;BME280;10039;42.632;23.408;2022-12-15T09:54:42;94562.59;;;6.26;83.59
19761;BME280;10039;42.632;23.408;2022-12-15T10:00:37;94570.22;;;6.21;84.12
19761;BME280;10039;42.632;23.408;2022-12-15T10:06:07;94550.69;;;6.04;83.60
19761;BME280;10039;42.632;23.408;2022-12-15T10:08:36;94533.31;;;6.00;83.34
19761;BME280;10039;42.632;23.408;2022-12-15T10:11:20;94516.13;;;5.78;83.56
19761;BME280;10039;42.632;23.408;2022-12-15T10:13:50;94549.94;;;6.04;83.33
19761;BME280;10039;42.632;23.408;2022-12-15T10:16:21;94556.25;;;6.17;82.93
19761;BME280;10039;42.632;23.408;2022-12-15T10:21:39;94531.88;;;5.92;84.35
19761;BME280;10039;42.632;23.408;2022-12-15T10:24:21;94550.66;;;6.08;84.54
19761;BME280;10039;42.632;23.408;2022-12-15T10:27:07;94549.38;;;6.23;84.00
19761;BME280;10039;42.632;23.408;2022-12-15T10:30:00;94542.94;;;6.24;84.13
19761;BME280;10039;42.632;23.408;2022-12-15T10:33:16;94542.59;;;6.18;84.05
19761;BME280;10039;42.632;23.408;2022-12-15T10:37:42;94547.16;;;6.18;83.29
19761;BME280;10039;42.632;23.408;2022-12-15T10:40:08;94536.22;;;6.16;83.50
19761;BME280;10039;42.632;23.408;2022-12-15T10:42:45;94530.63;;;6.07;83.64
19761;BME280;10039;42.632;23.408;2022-12-15T10:45:29;94572.38;;;6.33;84.20
19761;BME280;10039;42.632;23.408;2022-12-15T10:47:58;94531.75;;;6.06;84.21
19761;BME280;10039;42.632;23.408;2022-12-15T10:50:24;94532.78;;;6.19;84.32
19761;BME280;10039;42.632;23.408;2022-12-15T10:52:50;94543.00;;;6.17;84.27
19761;BME280;10039;42.632;23.408;2022-12-15T10:55:35;94551.97;;;6.30;84.26
19761;BME280;10039;42.632;23.408;2022-12-15T10:58:17;94558.03;;;6.27;84.43
19761;BME280;10039;42.632;23.408;2022-12-15T11:00:43;94522.97;;;6.16;84.00
19761;BME280;10039;42.632;23.408;2022-12-15T11:03:22;94547.81;;;6.29;84.13
19761;BME280;10039;42.632;23.408;2022-12-15T11:05:52;94553.47;;;6.31;84.01
19761;BME280;10039;42.632;23.408;2022-12-15T11:08:19;94535.44;;;6.19;84.10
19761;BME280;10039;42.632;23.408;2022-12-15T11:10:55;94521.41;;;6.18;83.84
19761;BME280;10039;42.632;23.408;2022-12-15T11:13:40;94521.47;;;6.15;84.17
19761;BME280;10039;42.632;23.408;2022-12-15T11:16:16;94546.59;;;6.37;85.11
19761;BME280;10039;42.632;23.408;2022-12-15T11:18:48;94523.06;;;6.42;84.08
19761;BME280;10039;42.632;23.408;2022-12-15T11:21:26;94557.97;;;6.34;84.25
19761;BME280;10039;42.632;23.408;2022-12-15T11:29:09;94563.59;;;6.76;83.14
19761;BME280;10039;42.632;23.408;2022-12-15T11:31:40;94564.34;;;6.76;83.43
19761;BME280;10039;42.632;23.408;2022-12-15T11:34:14;94529.72;;;6.57;83.70
19761;BME280;10039;42.632;23.408;2022-12-15T11:48:21;94549.81;;;6.88;83.78
19761;BME280;10039;42.632;23.408;2022-12-15T11:51:00;94583.22;;;7.15;83.55
19761;BME280;10039;42.632;23.408;2022-12-15T11:54:17;94568.25;;;7.28;82.55
19761;BME280;10039;42.632;23.408;2022-12-15T12:07:21;94590.03;;;7.46;82.78
19761;BME280;10039;42.632;23.408;2022-12-15T12:12:52;94582.81;;;7.47;82.72
19761;BME280;10039;42.632;23.408;2022-12-15T12:17:52;94581.00;;;7.40;83.26
19761;BME280;10039;42.632;23.408;2022-12-15T12:20:22;94564.16;;;7.50;81.98
19761;BME280;10039;42.632;23.408;2022-12-15T12:23:01;94584.31;;;7.48;82.80
19761;BME280;10039;42.632;23.408;2022-12-15T12:25:32;94552.97;;;7.39;82.62
19761;BME280;10039;42.632;23.408;2022-12-15T12:28:15;94576.72;;;7.20;83.61
19761;BME280;10039;42.632;23.408;2022-12-15T12:30:45;94581.22;;;7.23;83.35
19761;BME280;10039;42.632;23.408;2022-12-15T12:35:55;94623.31;;;7.51;83.03
19761;BME280;10039;42.632;23.408;2022-12-15T12:38:28;94586.25;;;7.44;82.62
19761;BME280;10039;42.632;23.408;2022-12-15T12:43:40;94586.25;;;7.44;82.56
19761;BME280;10039;42.632;23.408;2022-12-15T12:48:45;94629.16;;;7.69;82.96
19761;BME280;10039;42.632;23.408;2022-12-15T12:51:32;94612.34;;;7.49;82.37
19761;BME280;10039;42.632;23.408;2022-12-15T12:53:59;94606.69;;;7.47;82.58
19761;BME280;10039;42.632;23.408;2022-12-15T13:01:57;94610.41;;;7.53;82.00
19761;BME280;10039;42.632;23.408;2022-12-15T13:09:25;94628.63;;;7.51;82.68
19761;BME280;10039;42.632;23.408;2022-12-15T13:12:01;94600.81;;;7.32;81.58
19761;BME280;10039;42.632;23.408;2022-12-15T13:14:35;94624.91;;;7.48;81.82
19761;BME280;10039;42.632;23.408;2022-12-15T13:17:30;94626.19;;;7.63;81.74
19761;BME280;10039;42.632;23.408;2022-12-15T13:22:36;94640.53;;;7.69;81.55
19761;BME280;10039;42.632;23.408;2022-12-15T13:27:52;94647.16;;;7.54;82.07
19761;BME280;10039;42.632;23.408;2022-12-15T13:30:22;94633.53;;;7.22;81.94
19761;BME280;10039;42.632;23.408;2022-12-15T13:32:53;94663.44;;;7.56;81.63
19761;BME280;10039;42.632;23.408;2022-12-15T13:35:22;94646.00;;;7.55;81.26
19761;BME280;10039;42.632;23.408;2022-12-15T13:37:57;94638.41;;;7.57;80.67
19761;BME280;10039;42.632;23.408;2022-12-15T13:45:52;94651.31;;;7.85;79.48
19761;BME280;10039;42.632;23.408;2022-12-15T13:51:16;94661.84;;;7.92;77.94
19761;BME280;10039;42.632;23.408;2022-12-15T13:53:48;94638.09;;;7.81;78.08
19761;BME280;10039;42.632;23.408;2022-12-15T13:59:19;94626.91;;;7.67;78.10
19761;BME280;10039;42.632;23.408;2022-12-15T14:01:49;94635.13;;;7.76;78.54
19761;BME280;10039;42.632;23.408;2022-12-15T14:04:15;94670.59;;;7.89;78.25
19761;BME280;10039;42.632;23.408;2022-12-15T14:06:51;94674.75;;;7.93;78.73
19761;BME280;10039;42.632;23.408;2022-12-15T14:09:40;94666.16;;;7.82;78.28
19761;BME280;10039;42.632;23.408;2022-12-15T14:12:09;94666.28;;;7.72;78.62
19761;BME280;10039;42.632;23.408;2022-12-15T14:14:42;94679.66;;;7.65;79.65
19761;BME280;10039;42.632;23.408;2022-12-15T14:17:14;94692.50;;;7.70;80.06
19761;BME280;10039;42.632;23.408;2022-12-15T14:19:47;94664.25;;;7.53;79.35
19761;BME280;10039;42.632;23.408;2022-12-15T14:22:27;94683.81;;;7.66;78.88
19761;BME280;10039;42.632;23.408;2022-12-15T14:25:02;94700.38;;;7.77;78.75
19761;BME280;10039;42.632;23.408;2022-12-15T14:27:30;94700.38;;;7.77;79.22
19761;BME280;10039;42.632;23.408;2022-12-15T14:32:45;94681.25;;;7.59;78.73
19761;BME280;10039;42.632;23.408;2022-12-15T14:35:20;94686.19;;;7.57;78.45
19761;BME280;10039;42.632;23.408;2022-12-15T14:37:47;94707.00;;;7.62;78.88
19761;BME280;10039;42.632;23.408;2022-12-15T14:40:14;94695.38;;;7.53;78.06
19761;BME280;10039;42.632;23.408;2022-12-15T14:42:42;94731.97;;;7.68;78.53
19761;BME280;10039;42.632;23.408;2022-12-15T14:45:40;94736.22;;;7.62;78.85
19761;BME280;10039;42.632;23.408;2022-12-15T14:48:08;94719.16;;;7.26;79.65
19761;BME280;10039;42.632;23.408;2022-12-15T14:50:34;94731.44;;;7.13;81.63
19761;BME280;10039;42.632;23.408;2022-12-15T14:53:04;94697.16;;;6.92;81.99
19761;BME280;10039;42.632;23.408;2022-12-15T14:55:35;94719.56;;;6.88;82.02
19761;BME280;10039;42.632;23.408;2022-12-15T14:58:02;94746.91;;;6.81;83.25
19761;BME280;10039;42.632;23.408;2022-12-15T15:00:52;94723.69;;;6.49;85.14
19761;BME280;10039;42.632;23.408;2022-12-15T15:03:21;94760.03;;;6.45;86.74
19761;BME280;10039;42.632;23.408;2022-12-15T15:05:52;94750.19;;;6.45;87.53
19761;BME280;10039;42.632;23.408;2022-12-15T15:10:52;94733.00;;;6.13;87.88
19761;BME280;10039;42.632;23.408;2022-12-15T15:13:21;94751.19;;;6.11;88.76
19761;BME280;10039;42.632;23.408;2022-12-15T15:15:56;94746.53;;;6.22;89.04